createdAt,value
2019-05-17T00:00:57.418Z,100845.25
2019-05-17T00:03:27.357Z,100844.49
2019-05-17T00:05:57.171Z,100842.31
2019-05-17T00:08:33.953Z,100838.30
2019-05-17T00:10:58.442Z,100836.20
2019-05-17T00:13:28.362Z,100831.77
2019-05-17T00:15:58.399Z,100829.61
2019-05-17T00:18:28.188Z,100821.38
2019-05-17T00:20:57.972Z,100820.13
2019-05-17T00:23:27.717Z,100820.16
2019-05-17T00:25:57.478Z,100822.37
2019-05-17T00:28:27.236Z,100817.00
2019-05-17T00:30:57.274Z,100810.34
2019-05-17T00:33:27.360Z,100805.56
2019-05-17T00:35:57.185Z,100801.01
2019-05-17T00:38:27.385Z,100799.84
2019-05-17T00:40:57.554Z,100795.16
2019-05-17T00:43:27.336Z,100796.30
2019-05-17T00:45:57.506Z,100794.06
2019-05-17T00:48:28.560Z,100792.33
2019-05-17T00:51:02.101Z,100785.41
2019-05-17T00:53:29.946Z,100788.61
2019-05-17T00:55:59.692Z,100784.91
2019-05-17T00:58:29.596Z,100785.95
2019-05-17T01:00:59.263Z,100786.58
2019-05-17T01:03:29.034Z,100779.91
2019-05-17T01:05:58.805Z,100783.11
2019-05-17T01:08:54.113Z,100780.50
2019-05-17T01:11:17.721Z,100777.56
2019-05-17T01:13:47.581Z,100774.83
2019-05-17T01:16:17.337Z,100773.48
2019-05-17T01:18:47.246Z,100770.81
2019-05-17T01:21:18.178Z,100766.66
2019-05-17T01:23:47.975Z,100760.92
2019-05-17T01:26:18.409Z,100762.48
2019-05-17T01:28:48.401Z,100756.87
2019-05-17T01:31:18.205Z,100756.25
2019-05-17T01:33:47.932Z,100755.15
2019-05-17T01:36:17.739Z,100750.39
2019-05-17T01:38:47.647Z,100747.73
2019-05-17T01:41:17.547Z,100746.91
2019-05-17T01:43:47.564Z,100747.72
2019-05-17T01:46:18.162Z,100744.42
2019-05-17T01:48:47.949Z,100747.09
2019-05-17T01:51:17.790Z,100744.66
2019-05-17T01:53:47.590Z,100740.12
2019-05-17T01:56:17.383Z,100735.86
2019-05-17T01:58:47.267Z,100736.55
2019-05-17T02:01:17.166Z,100731.16
2019-05-17T02:03:47.169Z,100728.63
2019-05-17T02:06:17.786Z,100724.84
2019-05-17T02:08:47.707Z,100729.56
2019-05-17T02:11:18.420Z,100724.98
2019-05-17T02:13:48.603Z,100721.84
2019-05-17T02:16:18.440Z,100719.98
2019-05-17T02:18:48.123Z,100718.42
2019-05-17T02:21:17.925Z,100719.42
2019-05-17T02:23:47.776Z,100720.52
2019-05-17T02:26:17.615Z,100713.09
2019-05-17T02:28:47.302Z,100715.02
2019-05-17T02:31:17.482Z,100716.06
2019-05-17T02:33:47.379Z,100713.73
2019-05-17T02:36:17.158Z,100714.27
2019-05-17T02:38:46.929Z,100710.92
2019-05-17T02:41:16.737Z,100708.26
2019-05-17T02:43:46.535Z,100706.50
2019-05-17T02:46:16.360Z,100705.99
2019-05-17T02:48:46.071Z,100708.94
2019-05-17T02:51:15.806Z,100709.03
2019-05-17T02:53:45.546Z,100707.77
2019-05-17T02:56:15.223Z,100701.86
2019-05-17T02:58:44.972Z,100708.10
2019-05-17T03:01:14.985Z,100709.67
2019-05-17T03:03:44.758Z,100706.25
2019-05-17T03:06:14.555Z,100703.58
2019-05-17T03:08:44.415Z,100707.01
2019-05-17T03:11:14.258Z,100698.45
2019-05-17T03:13:44.124Z,100702.97
2019-05-17T03:16:14.904Z,100701.52
2019-05-17T03:18:44.899Z,100699.48
2019-05-17T03:21:14.660Z,100695.93
2019-05-17T03:23:44.314Z,100695.10
2019-05-17T03:26:14.073Z,100695.69
2019-05-17T03:28:43.940Z,100694.59
2019-05-17T03:31:16.947Z,100694.00
2019-05-17T03:33:46.664Z,100685.27
2019-05-17T03:36:17.899Z,100689.83
2019-05-17T03:38:48.121Z,100684.51
2019-05-17T03:41:23.773Z,100682.95
2019-05-17T03:43:53.022Z,100684.05
2019-05-17T03:46:23.197Z,100682.48
2019-05-17T03:48:53.317Z,100681.16
2019-05-17T03:51:23.476Z,100677.27
2019-05-17T03:53:53.508Z,100678.55
2019-05-17T03:56:23.359Z,100676.41
2019-05-17T03:58:53.598Z,100676.36
2019-05-17T04:01:23.617Z,100678.44
2019-05-17T04:03:53.376Z,100674.25
2019-05-17T04:06:24.061Z,100665.76
2019-05-17T04:08:53.919Z,100664.67
2019-05-17T04:11:31.430Z,100667.84
2019-05-17T04:13:55.373Z,100664.31
2019-05-17T04:16:25.091Z,100666.70
2019-05-17T04:18:54.901Z,100666.41
2019-05-17T04:21:24.710Z,100665.38
2019-05-17T04:23:54.465Z,100668.95
2019-05-17T04:26:24.303Z,100666.12
2019-05-17T04:28:54.155Z,100661.14
2019-05-17T04:31:24.268Z,100662.62
2019-05-17T04:33:53.981Z,100660.55
2019-05-17T04:36:23.844Z,100657.55
2019-05-17T04:39:02.641Z,100652.10
2019-05-17T04:41:41.583Z,100656.03
2019-05-17T04:44:04.002Z,100653.55
2019-05-17T04:46:33.773Z,100654.67
2019-05-17T04:49:03.609Z,100653.03
2019-05-17T04:51:33.634Z,100648.56
2019-05-17T04:54:03.653Z,100644.56
2019-05-17T04:56:33.779Z,100642.95
2019-05-17T04:59:04.200Z,100643.52
2019-05-17T05:01:34.002Z,100648.62
2019-05-17T05:04:04.061Z,100647.80
2019-05-17T05:06:33.790Z,100651.22
2019-05-17T05:09:05.342Z,100647.25
2019-05-17T05:11:50.404Z,100643.36
2019-05-17T05:14:06.717Z,100644.44
2019-05-17T05:16:36.499Z,100643.27
2019-05-17T05:19:06.548Z,100645.33
2019-05-17T05:21:36.216Z,100646.55
2019-05-17T05:24:06.142Z,100648.38
2019-05-17T05:26:35.981Z,100654.30
2019-05-17T05:29:06.073Z,100654.75
2019-05-17T05:31:36.042Z,100657.64
2019-05-17T05:34:05.974Z,100662.09
2019-05-17T05:36:35.715Z,100660.87
2019-05-17T05:39:07.974Z,100657.63
2019-05-17T05:41:37.736Z,100658.51
2019-05-17T05:44:07.582Z,100656.42
2019-05-17T05:46:37.318Z,100654.83
2019-05-17T05:49:07.156Z,100659.19
2019-05-17T05:51:36.870Z,100657.62
2019-05-17T05:54:07.035Z,100656.84
2019-05-17T05:56:36.903Z,100657.87
2019-05-17T05:59:06.687Z,100658.28
2019-05-17T06:01:36.699Z,100650.05
2019-05-17T06:04:06.832Z,100648.42
2019-05-17T06:06:36.678Z,100650.69
2019-05-17T06:09:11.817Z,100646.42
2019-05-17T06:11:41.660Z,100654.45
2019-05-17T06:14:12.213Z,100648.58
2019-05-17T06:16:42.623Z,100644.39
2019-05-17T06:19:12.447Z,100643.20
2019-05-17T06:21:42.672Z,100646.56
2019-05-17T06:24:12.604Z,100644.03
2019-05-17T06:26:42.649Z,100640.53
2019-05-17T06:29:12.329Z,100629.35
2019-05-17T06:31:43.307Z,100635.76
2019-05-17T06:34:13.477Z,100634.25
2019-05-17T06:36:43.217Z,100635.29
2019-05-17T06:39:12.951Z,100634.45
2019-05-17T06:41:42.660Z,100634.99
2019-05-17T06:44:12.437Z,100632.92
2019-05-17T06:46:42.197Z,100627.24
2019-05-17T06:49:11.980Z,100623.62
2019-05-17T06:51:42.621Z,100624.39
2019-05-17T06:54:12.635Z,100624.48
2019-05-17T06:56:42.348Z,100631.16
2019-05-17T06:59:12.102Z,100630.54
2019-05-17T07:01:41.887Z,100630.14
2019-05-17T07:04:11.697Z,100619.76
2019-05-17T07:06:41.480Z,100631.17
2019-05-17T07:09:11.229Z,100617.17
2019-05-17T07:11:40.910Z,100615.23
2019-05-17T07:14:10.610Z,100616.15
2019-05-17T07:16:40.527Z,100607.14
2019-05-17T07:19:10.538Z,100611.84
2019-05-17T07:21:40.597Z,100613.70
2019-05-17T07:24:10.469Z,100609.16
2019-05-17T07:26:40.155Z,100603.90
2019-05-17T07:29:10.139Z,100610.34
2019-05-17T07:31:40.444Z,100612.64
2019-05-17T07:34:10.344Z,100609.20
2019-05-17T07:36:40.022Z,100604.94
2019-05-17T07:39:10.800Z,100608.03
2019-05-17T07:41:40.702Z,100603.90
2019-05-17T07:44:10.373Z,100605.55
2019-05-17T07:46:40.333Z,100602.90
2019-05-17T07:49:10.993Z,100604.31
2019-05-17T07:51:40.733Z,100596.09
2019-05-17T07:54:10.582Z,100596.45
2019-05-17T07:56:40.408Z,100591.97
2019-05-17T07:59:10.245Z,100585.71
2019-05-17T08:01:41.246Z,100585.57
2019-05-17T08:04:11.272Z,100582.28
2019-05-17T08:06:40.931Z,100577.31
2019-05-17T08:09:14.035Z,100566.69
2019-05-17T08:11:42.436Z,100576.35
2019-05-17T08:14:12.186Z,100572.03
2019-05-17T08:16:41.929Z,100567.53
2019-05-17T08:19:11.734Z,100562.53
2019-05-17T08:21:41.496Z,100563.39
2019-05-17T08:24:11.205Z,100554.12
2019-05-17T08:26:40.957Z,100554.28
2019-05-17T08:29:10.825Z,100550.97
2019-05-17T08:31:40.668Z,100553.20
2019-05-17T08:34:10.505Z,100551.76
2019-05-17T08:36:40.640Z,100546.13
2019-05-17T08:39:10.695Z,100550.72
2019-05-17T08:41:40.663Z,100546.17
2019-05-17T08:44:10.516Z,100542.73
2019-05-17T08:46:40.392Z,100544.81
2019-05-17T08:49:10.195Z,100545.84
2019-05-17T08:51:40.249Z,100532.67
2019-05-17T08:54:10.466Z,100537.31
2019-05-17T08:56:40.563Z,100535.39
2019-05-17T08:59:10.455Z,100540.58
2019-05-17T09:01:41.905Z,100532.41
2019-05-17T09:04:11.526Z,100531.06
2019-05-17T09:06:41.236Z,100525.23
2019-05-17T09:09:11.057Z,100529.73
2019-05-17T09:11:40.761Z,100524.12
2019-05-17T09:14:10.659Z,100524.52
2019-05-17T09:16:40.597Z,100525.28
2019-05-17T09:19:10.311Z,100529.33
2019-05-17T09:21:40.117Z,100529.52
2019-05-17T09:24:10.508Z,100523.34
2019-05-17T09:26:40.465Z,100524.84
2019-05-17T09:29:10.772Z,100514.87
2019-05-17T09:31:40.654Z,100518.13
2019-05-17T09:34:10.370Z,100515.41
2019-05-17T09:36:40.831Z,100522.95
2019-05-17T09:39:10.965Z,100519.47
2019-05-17T09:41:40.766Z,100519.48
2019-05-17T09:44:15.777Z,100517.47
2019-05-17T09:46:42.145Z,100508.98
2019-05-17T09:49:11.888Z,100511.80
2019-05-17T09:51:41.716Z,100508.06
2019-05-17T09:54:12.996Z,100508.11
2019-05-17T09:56:42.741Z,100498.97
2019-05-17T09:59:12.469Z,100497.63
2019-05-17T10:01:42.440Z,100497.73
2019-05-17T10:04:13.658Z,100496.52
2019-05-17T10:06:43.897Z,100501.91
2019-05-17T10:09:13.637Z,100500.64
2019-05-17T10:11:43.385Z,100505.42
2019-05-17T10:14:24.697Z,100503.09
2019-05-17T10:16:44.899Z,100501.66
2019-05-17T10:19:14.550Z,100500.55
2019-05-17T10:21:44.393Z,100499.95
2019-05-17T10:24:14.135Z,100493.66
2019-05-17T10:26:43.982Z,100495.66
2019-05-17T10:29:13.656Z,100492.19
2019-05-17T10:31:43.413Z,100487.48
2019-05-17T10:34:13.124Z,100491.68
2019-05-17T10:36:43.318Z,100487.83
2019-05-17T10:39:12.949Z,100492.55
2019-05-17T10:41:42.771Z,100490.42
2019-05-17T10:44:12.534Z,100482.14
2019-05-17T10:46:42.327Z,100483.17
2019-05-17T10:49:12.032Z,100484.10
2019-05-17T10:51:41.840Z,100478.61
2019-05-17T10:54:12.128Z,100479.67
2019-05-17T10:56:41.840Z,100477.46
2019-05-17T10:59:11.529Z,100472.25
2019-05-17T11:01:41.323Z,100473.12
2019-05-17T11:04:11.091Z,100479.82
2019-05-17T11:06:41.505Z,100472.67
2019-05-17T11:09:11.252Z,100474.47
2019-05-17T11:11:40.936Z,100473.12
2019-05-17T11:14:10.820Z,100480.84
2019-05-17T11:16:40.509Z,100484.17
2019-05-17T11:19:11.703Z,100491.24
2019-05-17T11:21:41.407Z,100486.69
2019-05-17T11:24:11.113Z,100478.80
2019-05-17T11:26:40.976Z,100486.30
2019-05-17T11:29:10.818Z,100493.11
2019-05-17T11:31:40.542Z,100490.89
2019-05-17T11:34:10.266Z,100492.31
2019-05-17T11:36:40.025Z,100496.33
2019-05-17T11:39:09.767Z,100500.43
2019-05-17T11:41:39.557Z,100493.48
2019-05-17T11:44:09.449Z,100497.98
2019-05-17T11:46:39.220Z,100499.14
2019-05-17T11:49:08.858Z,100496.47
2019-05-17T11:51:38.614Z,100498.97
2019-05-17T11:54:08.420Z,100493.60
2019-05-17T11:56:38.196Z,100497.34
2019-05-17T11:59:07.930Z,100492.69
2019-05-17T12:01:37.795Z,100489.10
2019-05-17T12:04:07.594Z,100492.09
2019-05-17T12:06:37.264Z,100487.94
2019-05-17T12:09:07.920Z,100486.52
2019-05-17T12:11:37.689Z,100488.70
2019-05-17T12:14:07.451Z,100490.53
2019-05-17T12:16:37.116Z,100489.53
2019-05-17T12:19:06.863Z,100487.17
2019-05-17T12:21:36.538Z,100481.98
2019-05-17T12:24:06.328Z,100477.61
2019-05-17T12:26:36.332Z,100481.72
2019-05-17T12:29:06.122Z,100478.74
2019-05-17T12:31:35.934Z,100478.31
2019-05-17T12:34:05.720Z,100482.44
2019-05-17T12:36:35.437Z,100476.77
2019-05-17T12:39:07.232Z,100482.33
2019-05-17T12:41:36.936Z,100477.00
2019-05-17T12:44:06.666Z,100478.45
2019-05-17T12:46:36.419Z,100482.84
2019-05-17T12:49:06.241Z,100483.53
2019-05-17T12:51:36.011Z,100478.97
2019-05-17T12:54:05.756Z,100485.55
2019-05-17T12:56:35.641Z,100478.05
2019-05-17T12:59:05.514Z,100472.06
2019-05-17T13:01:35.211Z,100475.48
2019-05-17T13:04:05.504Z,100469.43
2019-05-17T13:06:35.156Z,100471.66
2019-05-17T13:09:05.676Z,100476.00
2019-05-17T13:11:35.353Z,100478.45
2019-05-17T13:14:05.644Z,100472.98
2019-05-17T13:16:35.335Z,100481.10
2019-05-17T13:19:05.171Z,100475.33
2019-05-17T13:21:34.865Z,100478.25
2019-05-17T13:24:05.015Z,100480.28
2019-05-17T13:26:34.806Z,100470.09
2019-05-17T13:29:04.577Z,100477.11
2019-05-17T13:31:34.571Z,100476.59
2019-05-17T13:34:04.797Z,100471.37
2019-05-17T13:36:34.458Z,100468.34
2019-05-17T13:39:06.111Z,100472.84
2019-05-17T13:41:36.252Z,100476.46
2019-05-17T13:44:06.211Z,100470.80
2019-05-17T13:46:36.036Z,100469.41
2019-05-17T13:49:05.936Z,100464.02
2019-05-17T13:51:35.850Z,100455.76
2019-05-17T13:54:05.801Z,100458.67
2019-05-17T13:56:35.528Z,100460.41
2019-05-17T13:59:05.369Z,100460.66
2019-05-17T14:01:35.061Z,100459.21
2019-05-17T14:04:05.057Z,100456.81
2019-05-17T14:06:34.822Z,100457.84
2019-05-17T14:09:06.346Z,100461.06
2019-05-17T14:11:35.993Z,100462.03
2019-05-17T14:14:05.914Z,100460.01
2019-05-17T14:16:35.702Z,100455.23
2019-05-17T14:19:05.623Z,100454.66
2019-05-17T14:21:35.757Z,100446.73
2019-05-17T14:24:05.590Z,100450.23
2019-05-17T14:26:35.258Z,100455.39
2019-05-17T14:29:05.264Z,100442.66
2019-05-17T14:31:35.281Z,100447.36
2019-05-17T14:34:05.263Z,100447.13
2019-05-17T14:36:35.338Z,100444.45
2019-05-17T14:39:06.488Z,100444.34
2019-05-17T14:41:36.252Z,100447.98
2019-05-17T14:44:06.085Z,100442.86
2019-05-17T14:46:35.897Z,100449.41
2019-05-17T14:49:05.734Z,100448.16
2019-05-17T14:51:35.475Z,100445.77
2019-05-17T14:54:05.640Z,100443.84
2019-05-17T14:56:35.549Z,100438.77
2019-05-17T14:59:05.240Z,100440.35
2019-05-17T15:01:34.922Z,100441.00
2019-05-17T15:04:04.688Z,100438.34
2019-05-17T15:06:34.399Z,100433.25
2019-05-17T15:09:05.433Z,100434.75
2019-05-17T15:11:35.499Z,100440.12
2019-05-17T15:14:05.984Z,100438.56
2019-05-17T15:16:35.790Z,100429.34
2019-05-17T15:19:05.986Z,100433.89
2019-05-17T15:21:35.659Z,100432.07
2019-05-17T15:24:05.543Z,100430.67
2019-05-17T15:26:35.836Z,100423.03
2019-05-17T15:29:05.754Z,100421.69
2019-05-17T15:31:37.933Z,100419.23
2019-05-17T15:34:08.053Z,100418.53
2019-05-17T15:36:37.930Z,100418.09
2019-05-17T15:39:07.998Z,100410.55
2019-05-17T15:41:37.719Z,100406.86
2019-05-17T15:44:07.437Z,100409.97
2019-05-17T15:46:37.288Z,100410.74
2019-05-17T15:49:07.283Z,100407.36
2019-05-17T15:51:37.080Z,100405.12
2019-05-17T15:54:06.935Z,100395.05
2019-05-17T15:56:36.698Z,100393.11
2019-05-17T15:59:06.618Z,100393.56
2019-05-17T16:01:36.297Z,100387.02
2019-05-17T16:04:06.156Z,100384.91
2019-05-17T16:06:36.034Z,100385.67
2019-05-17T16:09:07.149Z,100382.73
2019-05-17T16:11:37.124Z,100381.53
2019-05-17T16:14:07.037Z,100383.20
2019-05-17T16:16:36.901Z,100374.88
2019-05-17T16:19:06.662Z,100374.55
2019-05-17T16:21:36.779Z,100378.72
2019-05-17T16:24:06.607Z,100370.11
2019-05-17T16:26:36.337Z,100367.86
2019-05-17T16:29:06.129Z,100364.38
2019-05-17T16:31:35.903Z,100361.70
2019-05-17T16:34:05.653Z,100356.13
2019-05-17T16:36:35.349Z,100360.14
2019-05-17T16:39:08.476Z,100358.07
2019-05-17T16:41:38.396Z,100353.50
2019-05-17T16:44:08.341Z,100350.45
2019-05-17T16:46:38.140Z,100350.34
2019-05-17T16:49:07.952Z,100348.84
2019-05-17T16:51:37.733Z,100349.11
2019-05-17T16:54:07.745Z,100349.03
2019-05-17T16:56:37.474Z,100344.22
2019-05-17T16:59:07.288Z,100347.95
2019-05-17T17:01:37.101Z,100345.27
2019-05-17T17:04:07.066Z,100346.39
2019-05-17T17:06:36.885Z,100345.43
2019-05-17T17:09:07.974Z,100338.84
2019-05-17T17:11:37.680Z,100340.65
2019-05-17T17:14:07.498Z,100342.91
2019-05-17T17:16:39.618Z,100340.81
2019-05-17T17:19:09.486Z,100339.53
2019-05-17T17:21:39.343Z,100343.01
2019-05-17T17:24:09.152Z,100342.85
2019-05-17T17:26:38.935Z,100345.27
2019-05-17T17:29:08.743Z,100340.00
2019-05-17T17:31:38.519Z,100337.49
2019-05-17T17:34:08.375Z,100337.88
2019-05-17T17:36:38.292Z,100335.89
2019-05-17T17:39:08.366Z,100328.75
2019-05-17T17:41:38.235Z,100337.39
2019-05-17T17:44:08.124Z,100334.70
2019-05-17T17:46:38.003Z,100336.36
2019-05-17T17:49:07.924Z,100329.50
2019-05-17T17:51:37.784Z,100332.02
2019-05-17T17:54:07.489Z,100330.14
2019-05-17T17:56:37.250Z,100336.22
2019-05-17T17:59:07.173Z,100334.40
2019-05-17T18:01:37.009Z,100341.72
2019-05-17T18:04:07.043Z,100339.47
2019-05-17T18:06:36.721Z,100334.02
2019-05-17T18:09:07.278Z,100333.53
2019-05-17T18:11:36.988Z,100338.20
2019-05-17T18:14:13.210Z,100340.48
2019-05-17T18:16:38.227Z,100335.45
2019-05-17T18:19:08.008Z,100336.69
2019-05-17T18:21:37.833Z,100335.18
2019-05-17T18:24:07.707Z,100334.38
2019-05-17T18:26:37.607Z,100329.01
2019-05-17T18:29:08.177Z,100334.95
2019-05-17T18:31:38.277Z,100329.18
2019-05-17T18:34:08.218Z,100336.69
2019-05-17T18:36:38.567Z,100334.11
2019-05-17T18:39:08.772Z,100338.89
2019-05-17T18:41:38.728Z,100333.47
2019-05-17T18:44:08.542Z,100333.05
2019-05-17T18:46:38.393Z,100332.45
2019-05-17T18:49:08.225Z,100332.29
2019-05-17T18:51:38.240Z,100333.31
2019-05-17T18:54:11.574Z,100333.47
2019-05-17T18:56:41.354Z,100332.45
2019-05-17T18:59:11.200Z,100335.91
2019-05-17T19:01:40.916Z,100332.91
2019-05-17T19:04:10.809Z,100334.56
2019-05-17T19:06:40.581Z,100335.16
2019-05-17T19:09:11.559Z,100338.25
2019-05-17T19:11:41.458Z,100338.86
2019-05-17T19:14:11.232Z,100336.86
2019-05-17T19:16:40.886Z,100341.83
2019-05-17T19:19:10.742Z,100342.91
2019-05-17T19:21:40.626Z,100347.82
2019-05-17T19:24:10.415Z,100346.67
2019-05-17T19:26:40.127Z,100354.63
2019-05-17T19:29:10.035Z,100351.78
2019-05-17T19:31:40.037Z,100356.03
2019-05-17T19:34:09.955Z,100354.84
2019-05-17T19:36:41.545Z,100359.00
2019-05-17T19:39:11.252Z,100357.72
2019-05-17T19:41:41.047Z,100360.66
2019-05-17T19:44:10.880Z,100362.45
2019-05-17T19:46:40.855Z,100360.89
2019-05-17T19:49:11.119Z,100368.31
2019-05-17T19:51:40.981Z,100370.52
2019-05-17T19:54:10.879Z,100367.34
2019-05-17T19:56:40.745Z,100369.15
2019-05-17T19:59:10.589Z,100366.53
2019-05-17T20:01:40.258Z,100367.55
2019-05-17T20:04:10.068Z,100365.82
2019-05-17T20:06:40.107Z,100363.20
2019-05-17T20:09:10.138Z,100366.51
2019-05-17T20:11:40.052Z,100363.61
2019-05-17T20:14:09.825Z,100367.36
2019-05-17T20:16:39.602Z,100371.38
2019-05-17T20:19:09.489Z,100364.69
2019-05-17T20:21:39.250Z,100368.47
2019-05-17T20:24:09.150Z,100363.13
2019-05-17T20:26:38.949Z,100369.33
2019-05-17T20:29:10.929Z,100367.19
2019-05-17T20:31:40.333Z,100361.30
2019-05-17T20:34:10.111Z,100366.73
2019-05-17T20:36:39.784Z,100357.44
2019-05-17T20:39:09.764Z,100361.92
2019-05-17T20:41:39.460Z,100359.48
2019-05-17T20:44:09.283Z,100361.08
2019-05-17T20:46:39.131Z,100363.05
2019-05-17T20:49:08.807Z,100364.88
2019-05-17T20:51:38.903Z,100368.16
2019-05-17T20:54:08.611Z,100368.70
2019-05-17T20:56:38.360Z,100364.83
2019-05-17T20:59:08.166Z,100370.32
2019-05-17T21:01:37.989Z,100372.55
2019-05-17T21:04:07.860Z,100366.08
2019-05-17T21:06:37.631Z,100365.23
2019-05-17T21:09:08.410Z,100370.09
2019-05-17T21:11:40.081Z,100364.98
2019-05-17T21:14:10.013Z,100367.28
2019-05-17T21:16:39.718Z,100361.98
2019-05-17T21:19:09.627Z,100361.45
2019-05-17T21:21:39.436Z,100361.08
2019-05-17T21:24:10.283Z,100365.31
2019-05-17T21:26:40.157Z,100361.70
2019-05-17T21:29:09.978Z,100361.72
2019-05-17T21:31:39.730Z,100362.24
2019-05-17T21:34:09.475Z,100355.09
2019-05-17T21:36:39.255Z,100362.45
2019-05-17T21:39:09.390Z,100354.95
2019-05-17T21:41:39.201Z,100352.40
2019-05-17T21:44:08.945Z,100353.56
2019-05-17T21:46:38.740Z,100353.39
2019-05-17T21:49:08.576Z,100353.17
2019-05-17T21:51:38.457Z,100351.58
2019-05-17T21:54:08.292Z,100351.03
2019-05-17T21:56:39.790Z,100352.14
2019-05-17T21:59:12.617Z,100351.27
2019-05-17T22:01:41.286Z,100354.25
2019-05-17T22:04:11.177Z,100349.16
2019-05-17T22:06:43.689Z,100345.31
2019-05-17T22:09:13.463Z,100347.19
2019-05-17T22:11:44.881Z,100349.24
2019-05-17T22:14:14.614Z,100350.34
2019-05-17T22:16:44.397Z,100348.93
2019-05-17T22:19:14.115Z,100349.94
2019-05-17T22:21:43.955Z,100349.23
2019-05-17T22:24:13.753Z,100345.66
2019-05-17T22:26:43.747Z,100345.44
2019-05-17T22:29:13.483Z,100336.86
2019-05-17T22:31:43.310Z,100340.41
2019-05-17T22:34:13.138Z,100343.77
2019-05-17T22:36:43.314Z,100339.02
2019-05-17T22:39:13.052Z,100334.94
2019-05-17T22:41:42.775Z,100336.81
2019-05-17T22:44:12.474Z,100334.50
2019-05-17T22:46:42.160Z,100339.68
2019-05-17T22:49:11.927Z,100337.62
2019-05-17T22:51:41.644Z,100337.44
2019-05-17T22:54:12.229Z,100335.47
2019-05-17T22:56:41.998Z,100338.29
2019-05-17T22:59:11.744Z,100327.77
2019-05-17T23:01:41.549Z,100329.70
2019-05-17T23:04:11.865Z,100328.30
2019-05-17T23:06:41.529Z,100319.88
2019-05-17T23:09:11.548Z,100321.48
2019-05-17T23:11:41.303Z,100320.81
2019-05-17T23:14:11.062Z,100313.00
2019-05-17T23:16:51.076Z,100317.43
2019-05-17T23:19:12.694Z,100318.47
2019-05-17T23:21:42.419Z,100314.61
2019-05-17T23:24:12.258Z,100320.70
2019-05-17T23:26:41.939Z,100323.33
2019-05-17T23:29:11.758Z,100314.62
2019-05-17T23:31:41.948Z,100322.67
2019-05-17T23:34:11.749Z,100320.94
2019-05-17T23:36:41.506Z,100323.28
2019-05-17T23:39:11.334Z,100325.20
2019-05-17T23:41:41.144Z,100319.40
2019-05-17T23:44:10.879Z,100323.14
2019-05-17T23:46:40.551Z,100320.16
2019-05-17T23:49:10.694Z,100316.83
2019-05-17T23:51:40.540Z,100314.05
2019-05-17T23:54:10.263Z,100312.30
2019-05-17T23:56:40.060Z,100315.86
2019-05-17T23:59:09.787Z,100328.18
